• Join FlightAware (Why Join?)
  • Login
  • US Flag 
01:45AM EDT


 

Airport Tracker/Info


-or-


 

Live Flight TrackerFlight Track Log ✈ JEX3057 ✈ 11-Apr-2013 ✈ RJAA / NRT - RJFF / FUK

Flight Track Log - Related Links

Times and Time Zones

All times are in EDT time to prevent confusion due to time zone crossing. See the JEX3057 flight status page for this flight to view local times or setup timezone preferences in your user account.

Time Position Orientation Groundspeed Altitude Reporting Facility
EDT Latitude Longitude Course Direction KTS MPH feet Rate Location/Type
07:00AM 35.7129 140.0897 258° West  Level Estimated
07:01AM 35.6955 139.9909 258° West  Level Estimated
07:02AM 35.6779 139.8921 258° West  Level Estimated
07:03AM 35.6603 139.7934 258° West  Level Estimated
07:04AM 35.6427 139.6947 258° West  Level Estimated
07:05AM 35.6249 139.5961 258° West  Level Estimated
07:06AM 35.6071 139.4975 257° West  Level Estimated
07:07AM 35.5891 139.3989 257° West  Level Estimated
07:08AM 35.5711 139.3004 257° West  Level Estimated
07:09AM 35.5531 139.2019 257° West  Level Estimated
07:10AM 35.5349 139.1035 257° West  Level Estimated
07:11AM 35.5167 139.0051 257° West  Level Estimated
07:12AM 35.4983 138.9068 257° West  Level Estimated
07:13AM 35.4799 138.8085 257° West  Level Estimated
07:14AM 35.4615 138.7103 257° West  Level Estimated
07:15AM 35.4429 138.6121 257° West  Level Estimated
07:16AM 35.4243 138.5139 257° West  Level Estimated
07:17AM 35.4055 138.4158 257° West  Level Estimated
07:18AM 35.3867 138.3178 257° West  Level Estimated
07:19AM 35.3679 138.2198 257° West  Level Estimated
07:20AM 35.3489 138.1218 257° West  Level Estimated
07:21AM 35.3299 138.0239 257° West  Level Estimated
07:22AM 35.3108 137.9260 257° West  Level Estimated
07:23AM 35.2916 137.8282 257° West  Level Estimated
07:24AM 35.2723 137.7304 256° West  Level Estimated
07:25AM 35.2530 137.6326 256° West  Level Estimated
07:26AM 35.2336 137.5350 256° West  Level Estimated
07:27AM 35.2141 137.4373 256° West  Level Estimated
07:28AM 35.1945 137.3397 256° West  Level Estimated
07:29AM 35.1748 137.2422 256° West  Level Estimated
07:30AM 35.1551 137.1447 256° West  Level Estimated
07:31AM 35.1353 137.0472 256° West  Level Estimated
07:32AM 35.1153 136.9498 256° West  Level Estimated
07:33AM 35.0954 136.8525 256° West  Level Estimated
07:34AM 35.0753 136.7552 256° West  Level Estimated
07:35AM 35.0552 136.6579 256° West  Level Estimated
07:36AM 35.0350 136.5607 256° West  Level Estimated
07:37AM 35.0147 136.4635 256° West  Level Estimated
07:38AM 34.9944 136.3664 256° West  Level Estimated
07:39AM 34.9739 136.2693 256° West  Level Estimated
07:40AM 34.9534 136.1723 256° West  Level Estimated
07:41AM 34.9328 136.0753 256° West  Level Estimated
07:42AM 34.9121 135.9784 255° West  Level Estimated
07:43AM 34.8914 135.8815 255° West  Level Estimated
07:44AM 34.8706 135.7847 255° West  Level Estimated
07:45AM 34.8499 135.6889 255° West  Level Estimated
07:46AM 34.8291 135.5931 255° West  Level Estimated
07:47AM 34.8082 135.4973 255° West  Level Estimated
07:48AM 34.7873 135.4016 255° West  Level Estimated
07:49AM 34.7663 135.3060 255° West  Level Estimated
07:50AM 34.7453 135.2104 255° West  Level Estimated
07:51AM 34.7241 135.1148 255° West  Level Estimated
07:52AM 34.7029 135.0193 255° West  Level Estimated
07:53AM 34.6816 134.9238 255° West  Level Estimated
07:54AM 34.6602 134.8284 255° West  Level Estimated
07:55AM 34.6388 134.7331 255° West  Level Estimated
07:56AM 34.6172 134.6378 255° West  Level Estimated
07:57AM 34.5956 134.5425 255° West  Level Estimated
07:58AM 34.5740 134.4473 255° West  Level Estimated
07:59AM 34.5522 134.3521 255° West  Level Estimated
08:00AM 34.5304 134.2570 254° West  Level Estimated
08:01AM 34.5085 134.1620 254° West  Level Estimated
08:02AM 34.4866 134.0670 254° West  Level Estimated
08:03AM 34.4645 133.9720 254° West  Level Estimated
08:04AM 34.4424 133.8771 254° West  Level Estimated
08:05AM 34.4202 133.7822 254° West  Level Estimated
08:06AM 34.3980 133.6874 254° West  Level Estimated
08:07AM 34.3756 133.5927 254° West  Level Estimated
08:08AM 34.3532 133.4979 254° West  Level Estimated
08:09AM 34.3308 133.4033 254° West  Level Estimated
08:10AM 34.3082 133.3087 254° West  Level Estimated
08:11AM 34.2856 133.2141 254° West  Level Estimated
08:12AM 34.2629 133.1196 254° West  Level Estimated
08:13AM 34.2401 133.0252 254° West  Level Estimated
08:14AM 34.2173 132.9308 254° West  Level Estimated
08:15AM 34.1944 132.8364 254° West  Level Estimated
08:16AM 34.1714 132.7421 254° West  Level Estimated
08:17AM 34.1484 132.6479 254° West  Level Estimated
08:18AM 34.1252 132.5537 254° West  Level Estimated
08:19AM 34.1020 132.4595 253° West  Level Estimated
08:20AM 34.0788 132.3654 253° West  Level Estimated
08:21AM 34.0554 132.2714 253° West  Level Estimated
08:22AM 34.0320 132.1774 253° West  Level Estimated
08:23AM 34.0085 132.0835 253° West  Level Estimated
08:24AM 33.9850 131.9896 253° West  Level Estimated
08:25AM 33.9613 131.8957 253° West  Level Estimated
08:26AM 33.9376 131.8020 253° West  Level Estimated
08:27AM 33.9139 131.7082 253° West  Level Estimated
08:28AM 33.8900 131.6145 253° West  Level Estimated
08:29AM 33.8661 131.5209 253° West  Level Estimated
08:30AM 33.8421 131.4274 253° West  Level Estimated
08:31AM 33.8181 131.3338 253° West  Level Estimated
08:32AM 33.7940 131.2404 253° West  Level Estimated
08:33AM 33.7698 131.1470 253° West  Level Estimated
08:34AM 33.7455 131.0536 253° West  Level Estimated
08:35AM 33.7212 130.9603 253° West  Level Estimated
08:36AM 33.6968 130.8670 253° West  Level Estimated
08:37AM 33.6723 130.7738 253° West  Level Estimated
08:38AM 33.6477 130.6807 252° West  Level Estimated
08:39AM 33.6231 130.5876 252° West  Level Estimated
08:40AM 33.5989 130.4963 252° West  Level Estimated
08:41AM 33.5866 130.4502 252° West  Level Estimated
08:42AM 33.5866 130.4502 248° West  Level Estimated
08:43AM 33.5866 130.4502 248° West  Level Estimated
08:44AM 33.5866 130.4502 248° West  Level Estimated
08:45AM 33.5866 130.4502 248° West  Level Estimated
08:46AM 33.5866 130.4502 248° West  Level Estimated
08:47AM 33.5866 130.4502 248° West  Level Estimated
08:48AM 33.5866 130.4502 248° West  Level Estimated
08:49AM 33.5866 130.4502 248° West  Level Estimated
08:50AM 33.5866 130.4502 248° West  Level Estimated
08:51AM 33.5866 130.4502 248° West  Level Estimated
08:52AM 33.5866 130.4502 248° West  Level Estimated
08:53AM 33.5866 130.4502 248° West  Level Estimated
08:54AM 33.5866 130.4502 248° West  Level Estimated